Latest Weather Observations for Fitzroy Crossing

IDW60801

Issued at 1:03 pm WST Tuesday 24 January 2017 (issued every 30 minutes, with the page automatically refreshed every 10 minutes)

About weather observations | Map of weather stations | Latest weather observations for WA | Other Formats
Station Details ID: 003093 Name: FITZROY CROSSING AERO Lat: -18.18 Lon: 125.56 Height: 114.5 m
Data from the previous 72 hours. | See also: Recent months at Fitzroy Crossing
Date/Time
WST
Temp
°C
App
Temp
°C
Dew
Point
°C
Rel
Hum
%
Delta-T
°C
Wind Press
QNH
hPa
Press
MSL
hPa
Rain since
9am
mm
Dir  Spd
km/h
Gust
km/h
Spd
kts
Gust
kts
24/01:00pm 30.1 32.9 24.3 71 4.1 SW 17 22 9 12 1006.4 1005.4 0.0
24/12:30pm 30.6 31.7 23.0 64 5.2 SSW 22 33 12 18 1006.9 1006.0 0.0
24/12:00pm 33.4 35.8 23.7 56 6.8 SW 17 24 9 13 1007.2 1006.3 0.0
24/11:30am 32.5 34.3 23.2 58 6.4 SW 19 30 10 16 1007.4 1006.5 0.0
24/11:00am 33.1 35.5 23.7 57 6.6 WSW 17 22 9 12 1008.1 1007.2 0.0
24/10:30am 32.0 34.2 23.3 60 6.0 SSW 17 24 9 13 1009.0 1008.1 0.0
24/10:00am 31.5 33.9 23.6 63 5.5 SSW 17 22 9 12 1009.3 1008.4 0.0
24/09:30am 30.5 32.5 22.9 64 5.2 SSW 17 22 9 12 1009.5 1008.6 0.0
24/09:00am 30.9 32.6 23.0 62 5.4 SW 19 26 10 14 1009.3 1008.4 0.6
24/08:30am 29.9 31.6 23.1 67 4.7 WSW 19 26 10 14 1009.0 1008.1 0.6
24/08:00am 28.8 31.2 23.7 74 3.5 WSW 17 24 9 13 1009.2 1008.3 0.6
24/07:30am 27.4 30.6 24.3 83 2.2 W 15 20 8 11 1009.2 1008.3 0.6
24/07:00am 26.6 31.5 24.4 88 1.5 WSW 6 9 3 5 1009.3 1008.4 0.6
24/06:30am 26.2 31.4 24.2 89 1.4 WSW 4 9 2 5 1009.1 1008.2 0.6
24/06:00am 25.8 30.0 23.5 87 1.6 S 7 9 4 5 1008.9 1008.0 0.0
24/05:30am 26.0 30.3 23.3 85 1.8 SW 6 7 3 4 1008.6 1007.7 0.0
24/05:00am 25.9 30.1 23.2 85 1.8 WSW 6 7 3 4 1007.8 1006.9 0.0
24/04:30am 25.9 28.8 23.2 85 1.8 W 13 17 7 9 1007.1 1006.2 0.0
24/04:00am 25.9 29.8 23.6 87 1.6 WNW 9 11 5 6 1007.0 1006.1 0.0
24/03:30am 26.1 29.9 23.4 85 1.8 WNW 9 13 5 7 1006.5 1005.6 0.0
24/03:00am 26.3 29.5 23.0 82 2.3 WNW 11 15 6 8 1006.3 1005.3 0.0
24/02:30am 26.6 29.3 22.9 80 2.5 WNW 13 15 7 8 1006.1 1005.1 0.0
24/02:00am 27.1 29.4 22.7 77 3.0 WNW 15 20 8 11 1006.2 1005.2 0.0
24/01:30am 27.4 29.2 22.6 75 3.3 WNW 17 20 9 11 1006.3 1005.3 0.0
24/01:00am 27.8 28.9 22.3 72 3.7 WNW 20 26 11 14 1006.4 1005.4 0.0
24/12:30am 27.8 30.3 23.2 76 3.2 WNW 15 20 8 11 1006.9 1006.0 0.0
24/12:00am 28.0 31.4 24.0 79 2.8 NW 13 15 7 8 1007.0 1006.1 0.0
 
Date/Time
WST
Temp
°C
App
Temp
°C
Dew
Point
°C
Rel
Hum
%
Delta-T
°C
Wind Press
QNH
hPa
Press
MSL
hPa
Rain since
9am
mm
Dir  Spd
km/h
Gust
km/h
Spd
kts
Gust
kts
23/11:30pm 28.1 31.7 24.3 80 2.6 NNW 13 17 7 9 1007.3 1006.4 0.0
23/11:00pm 28.2 32.6 24.4 80 2.7 NNW 9 13 5 7 1007.5 1006.6 0.0
23/10:30pm 28.6 33.4 24.4 78 2.9 NW 7 7 4 4 1007.9 1007.0 0.0
23/10:00pm 28.7 33.4 24.3 77 3.1 NW 7 9 4 5 1008.0 1007.1 0.0
23/09:30pm 28.8 33.7 24.4 77 3.1 NNW 6 7 3 4 1007.9 1007.0 0.0
23/09:00pm 29.0 33.6 24.1 75 3.4 NNW 7 7 4 4 1007.5 1006.6 0.0
23/08:30pm 28.9 33.5 24.2 76 3.3 N 7 9 4 5 1007.3 1006.4 0.0
23/08:00pm 29.4 35.7 25.4 79 2.8 NNW 2 7 1 4 1006.7 1005.8 0.0
23/07:30pm 29.7 35.9 25.2 77 3.2 NW 2 6 1 3 1006.3 1005.3 0.0
23/07:00pm 29.9 36.0 24.5 73 3.8 CALM 0 0 0 0 1005.9 1004.9 0.0
23/06:30pm 30.7 35.8 23.4 65 5.1 SE 2 6 1 3 1005.7 1004.7 0.0
23/06:00pm 31.9 36.0 23.2 60 6.0 SE 7 9 4 5 1005.3 1004.3 0.0
23/05:30pm 32.0 35.6 22.4 57 6.6 S 7 9 4 5 1004.8 1003.8 0.0
23/05:00pm 32.2 34.8 22.0 55 7.0 S 11 15 6 8 1004.5 1003.6 0.0
23/04:30pm 32.1 35.2 22.2 56 6.8 SSW 9 13 5 7 1004.3 1003.4 0.0
23/04:00pm 31.0 32.5 22.0 58 6.1 SSW 17 20 9 11 1004.2 1003.3 0.0
23/03:30pm 33.3 34.6 22.7 53 7.3 SW 20 35 11 19 1004.2 1003.3 0.0
23/03:00pm 33.9 35.8 21.3 47 8.6 SW 13 20 7 11 1004.6 1003.7 0.0
23/02:30pm 34.5 37.1 21.9 48 8.6 SW 11 19 6 10 1005.1 1004.1 0.0
23/02:00pm 32.8 35.1 21.3 50 7.8 WSW 11 17 6 9 1005.6 1004.6 0.0
23/01:30pm 33.2 36.0 22.3 52 7.5 W 11 17 6 9 1006.1 1005.1 0.0
23/01:00pm 33.0 35.5 21.8 51 7.7 W 11 17 6 9 1006.6 1005.7 0.0
23/12:30pm 32.6 34.6 21.5 52 7.5 W 13 24 7 13 1006.7 1005.8 0.0
23/12:00pm 32.4 34.2 21.9 54 7.2 W 15 24 8 13 1007.1 1006.2 0.0
23/11:30am 33.1 34.9 21.9 51 7.6 WSW 15 20 8 11 1007.5 1006.6 0.0
23/11:00am 32.8 34.5 22.3 54 7.2 WSW 17 24 9 13 1007.8 1006.9 0.0
23/10:30am 31.5 33.2 21.7 56 6.6 WSW 15 22 8 12 1008.0 1007.1 0.0
23/10:00am 31.6 33.9 22.0 56 6.5 W 13 20 7 11 1008.4 1007.5 0.0
23/09:30am 31.2 32.3 21.9 57 6.3 WSW 19 28 10 15 1008.5 1007.6 0.0
23/09:00am 30.3 31.7 21.9 60 5.7 WSW 17 22 9 12 1009.0 1008.1 0.0
23/08:30am 29.4 30.3 21.9 64 5.1 W 20 26 11 14 1009.2 1008.3 0.0
23/08:00am 28.9 29.9 21.7 65 4.9 WSW 19 24 10 13 1009.3 1008.4 0.0
23/07:30am 28.0 29.0 21.8 69 4.2 W 19 24 10 13 1009.4 1008.5 0.0
23/07:00am 27.1 29.6 22.5 76 3.1 WNW 13 17 7 9 1009.3 1008.4 0.0
23/06:30am 25.8 29.5 22.5 82 2.2 WNW 7 11 4 6 1008.8 1007.9 0.0
23/06:00am 25.2 28.4 22.3 84 2.0 WNW 9 11 5 6 1008.3 1007.4 0.0
23/05:30am 24.8 27.8 21.9 84 1.9 W 9 13 5 7 1008.0 1007.1 0.0
23/05:00am 25.1 27.4 22.0 83 2.1 WNW 13 15 7 8 1007.5 1006.6 0.0
23/04:30am 25.4 29.2 23.5 89 1.3 W 9 13 5 7 1007.3 1006.4 0.0
23/04:00am 25.5 29.4 23.6 89 1.3 WNW 9 13 5 7 1006.8 1005.9 0.0
23/03:30am 25.7 29.2 23.6 88 1.4 WNW 11 15 6 8 1006.5 1005.6 0.0
23/03:00am 25.9 28.9 23.4 86 1.7 WNW 13 15 7 8 1006.2 1005.2 0.0
23/02:30am 26.3 29.2 23.2 83 2.1 WNW 13 17 7 9 1006.3 1005.3 0.0
23/02:00am 26.6 29.2 23.3 82 2.3 WNW 15 20 8 11 1006.4 1005.4 0.0
23/01:30am 26.9 28.9 22.9 79 2.7 WNW 17 22 9 12 1006.6 1005.7 0.0
23/01:00am 26.9 29.3 22.9 79 2.7 WNW 15 20 8 11 1006.9 1006.0 0.0
23/12:30am 27.2 28.9 23.0 78 2.9 WNW 19 24 10 13 1007.0 1006.1 0.0
23/12:00am 27.5 29.6 23.1 77 3.0 WNW 17 24 9 13 1007.3 1006.4 0.0
 
Date/Time
WST
Temp
°C
App
Temp
°C
Dew
Point
°C
Rel
Hum
%
Delta-T
°C
Wind Press
QNH
hPa
Press
MSL
hPa
Rain since
9am
mm
Dir  Spd
km/h
Gust
km/h
Spd
kts
Gust
kts
22/11:30pm 27.2 30.2 23.4 80 2.6 WNW 13 15 7 8 1007.6 1006.7 0.0
22/11:00pm 27.3 30.4 23.5 80 2.6 NW 13 15 7 8 1007.8 1006.9 0.0
22/10:30pm 27.3 30.5 23.7 81 2.5 NW 13 15 7 8 1008.0 1007.1 0.0
22/10:00pm 27.7 31.4 23.9 80 2.6 NW 11 15 6 8 1007.9 1007.0 0.0
22/09:30pm 28.4 31.8 24.0 77 3.1 NW 13 17 7 9 1007.9 1007.0 0.0
22/09:00pm 29.1 33.1 24.4 76 3.3 NW 11 15 6 8 1007.9 1007.0 0.0
22/08:30pm 29.2 34.2 24.5 76 3.3 NNW 6 9 3 5 1007.7 1006.8 0.0
22/08:00pm 29.3 35.5 24.6 76 3.3 CALM 0 0 0 0 1007.5 1006.6 0.0
22/07:30pm 29.8 36.2 24.9 75 3.4 CALM 0 0 0 0 1007.4 1006.5 0.0
22/07:00pm 30.2 35.3 22.6 63 5.2 CALM 0 0 0 0 1007.1 1006.2 0.0
22/06:30pm 30.5 34.7 23.4 66 4.9 W 7 9 4 5 1006.8 1005.9 0.0
22/06:00pm 31.0 35.6 23.1 63 5.5 W 4 7 2 4 1006.4 1005.4 0.0
22/05:30pm 31.6 33.9 22.0 56 6.5 W 13 17 7 9 1005.9 1004.9 0.0
22/05:00pm 32.1 33.7 22.2 56 6.8 SW 17 24 9 13 1005.5 1004.5 0.0
22/04:30pm 32.8 34.5 21.6 51 7.6 SW 15 19 8 10 1005.3 1004.3 0.0
22/04:00pm 33.2 35.2 20.7 47 8.4 WSW 11 15 6 8 1005.5 1004.5 0.0
22/03:30pm 34.1 35.9 21.2 47 8.8 SW 13 17 7 9 1005.7 1004.7 0.0
22/03:00pm 34.3 35.9 21.4 47 8.8 WSW 15 22 8 12 1006.0 1005.0 0.0
22/02:30pm 33.3 36.1 21.5 50 8.0 SSW 9 15 5 8 1006.4 1005.4 0.0
22/02:00pm 34.1 36.2 22.5 50 8.0 SSW 15 22 8 12 1006.9 1006.0 0.0
22/01:30pm 34.4 35.4 21.8 48 8.6 SW 19 28 10 15 1007.2 1006.3 0.0
22/01:00pm 33.0 35.2 20.5 47 8.4 SW 9 17 5 9 1007.6 1006.7 0.0
22/12:30pm 33.4 36.0 21.9 51 7.9 SSW 11 17 6 9 1008.2 1007.3 0.0
22/12:00pm 32.8 35.5 21.3 50 7.8 W 9 15 5 8 1008.5 1007.6 0.0
22/11:30am 33.8 36.4 21.9 49 8.1 WNW 11 19 6 10 1008.7 1007.8 0.0
22/11:00am 33.4 36.0 21.9 51 7.9 WSW 11 17 6 9 1009.2 1008.3 0.0
22/10:30am 32.2 34.7 21.7 54 7.1 WSW 11 17 6 9 1009.6 1008.7 0.0
22/10:00am 32.2 34.6 22.3 56 6.8 WSW 13 20 7 11 1010.0 1009.1 0.0
22/09:30am 30.6 32.8 21.9 59 5.9 W 13 20 7 11 1010.2 1009.3 0.0
22/09:00am 30.1 32.2 21.7 60 5.7 WSW 13 19 7 10 1010.3 1009.4 0.0
22/08:30am 30.1 32.5 23.0 65 4.9 WSW 15 24 8 13 1010.4 1009.5 0.0
22/08:00am 28.9 31.0 23.1 71 4.0 WSW 17 20 9 11 1010.5 1009.6 0.0
22/07:30am 28.4 30.9 23.1 73 3.6 W 15 24 8 13 1010.4 1009.5 0.0
22/07:00am 27.9 31.0 23.5 77 3.0 WNW 13 17 7 9 1010.4 1009.5 0.0
22/06:30am 26.8 30.6 24.1 85 1.9 WNW 11 15 6 8 1010.2 1009.3 0.0
22/06:00am 25.4 29.6 23.5 89 1.3 W 7 7 4 4 1010.2 1009.3 0.0
22/05:30am 24.8 28.9 23.2 91 1.1 WNW 7 7 4 4 1009.8 1008.9 0.0
22/05:00am 24.7 28.3 23.1 91 1.1 WNW 9 11 5 6 1009.3 1008.4 0.0
22/04:30am 25.0 28.3 23.2 90 1.2 WNW 11 13 6 7 1008.9 1008.0 0.0
22/04:00am 25.2 28.2 23.3 89 1.3 WNW 13 15 7 8 1008.7 1007.8 0.0
22/03:30am 25.2 28.4 23.1 88 1.4 WNW 11 15 6 8 1008.5 1007.6 0.0
22/03:00am 25.2 28.4 23.1 88 1.4 WNW 11 13 6 7 1008.3 1007.4 0.0
22/02:30am 25.3 29.0 23.2 88 1.4 WNW 9 13 5 7 1008.4 1007.5 0.0
22/02:00am 25.2 28.1 23.1 88 1.4 WNW 13 15 7 8 1008.4 1007.5 0.0
22/01:30am 25.4 28.3 23.1 87 1.6 NW 13 17 7 9 1008.5 1007.6 0.0
22/01:00am 25.4 28.1 22.9 86 1.7 NW 13 17 7 9 1008.6 1007.7 0.0
22/12:30am 25.5 28.3 23.0 86 1.7 NW 13 17 7 9 1008.8 1007.9 0.0
22/12:00am 25.6 28.7 22.9 85 1.8 NW 11 15 6 8 1008.9 1008.0 0.0
 
Date/Time
WST
Temp
°C
App
Temp
°C
Dew
Point
°C
Rel
Hum
%
Delta-T
°C
Wind Press
QNH
hPa
Press
MSL
hPa
Rain since
9am
mm
Dir  Spd
km/h
Gust
km/h
Spd
kts
Gust
kts
21/11:30pm 25.7 29.2 22.8 84 2.0 NW 9 13 5 7 1009.3 1008.4 0.0
21/11:00pm 25.9 29.5 23.0 84 2.0 NW 9 13 5 7 1009.4 1008.5 0.0
21/10:30pm 26.0 31.4 23.3 85 1.8 CALM 0 0 0 0 1009.6 1008.7 0.0
21/10:00pm 26.2 31.4 22.9 82 2.2 CALM 0 0 0 0 1009.7 1008.8 0.0
21/09:30pm 26.1 29.9 22.4 80 2.5 NW 6 7 3 4 1009.4 1008.5 0.0
21/09:00pm 26.6 29.3 22.2 77 3.0 WSW 11 13 6 7 1008.9 1008.0 0.0
21/08:30pm 27.3 29.8 22.5 75 3.3 WSW 13 15 7 8 1008.6 1007.7 0.0
21/08:00pm 27.5 28.9 21.8 71 3.8 W 17 22 9 12 1008.3 1007.4 0.0
21/07:30pm 28.1 30.3 21.9 69 4.2 WNW 13 15 7 8 1007.8 1006.9 0.0
21/07:00pm 28.4 30.8 22.2 69 4.2 W 13 13 7 7 1007.5 1006.6 0.0
21/06:30pm 29.3 31.8 21.8 64 5.1 WNW 11 13 6 7 1007.2 1006.3 0.0
21/06:00pm 30.6 32.8 21.9 59 5.9 NW 13 15 7 8 1006.8 1005.9 0.0
21/05:30pm 31.4 33.1 21.6 56 6.6 NW 15 19 8 10 1006.4 1005.4 0.0
21/05:00pm 32.7 33.0 19.6 46 8.7 WNW 17 20 9 11 1005.9 1004.9 0.0
21/04:30pm 34.0 34.1 20.0 43 9.3 NW 19 24 10 13 1005.7 1004.7 0.0
21/04:00pm 34.2 34.2 19.8 42 9.6 WNW 19 24 10 13 1005.6 1004.6 0.0
21/03:30pm 34.6 36.5 20.6 44 9.4 NW 11 19 6 10 1005.6 1004.6 0.0
21/03:00pm 34.2 34.6 19.8 42 9.6 WNW 17 26 9 14 1006.0 1005.0 0.0
21/02:30pm 34.0 35.8 21.8 49 8.3 NNW 15 22 8 12 1006.3 1005.3 0.0
21/02:00pm 33.5 35.0 22.0 51 7.9 NW 17 26 9 14 1006.6 1005.7 0.0
21/01:30pm 33.3 34.5 22.1 52 7.7 NW 19 26 10 14 1007.0 1006.1 0.0

Other Formats:

Comma delimited format used in spreadsheet applications
http://www.bom.gov.au/fwo/IDW60801/IDW60801.94206.axf

JavaScript Object Notation format (JSON) in row-major order
http://www.bom.gov.au/fwo/IDW60801/IDW60801.94206.json